KWRI/WRI METAR and TAF weather

Enter ICAO airport designator
Station Type Date Time Source
KWRI METAR 2019/04/20 20:56 UTC NOAA

KWRI 202056Z AUTO 18012KT 10SM FEW190 19/08 A2971 RMK AO2 PK WND 19026/41 SLPNO T01930083 53008 $


Station Type Date Time Source
KWRI Decoded METAR 2019/04/20 20:56 UTC NOAA

Mcguire Air Force Base, NJ, United States (KWRI) 40-01N 074-36W
Apr 20, 2019 - 04:56 PM EDT / 2019.04.20 2056 UTC
Wind: from the S (180 degrees) at 14 MPH (12 KT):0
Visibility: 10 mile(s):0
Sky conditions: mostly clear
Temperature: 66.7 F (19.3 C)
Dew Point: 46.9 F (8.3 C)
Relative Humidity: 48%
Pressure (altimeter): 29.71 in. Hg (1006 hPa)
Pressure tendency: 0.02 inches (0.8 hPa) higher than three hours ago
ob: KWRI 202056Z AUTO 18012KT 10SM FEW190 19/08 A2971 RMK AO2 PK WND 19026/41 SLPNO T01930083 53008
cycle: 21

Station Type Date Time Source
KWRI TAF 2019/04/20 18:12 UTC NOAA

TAF KWRI 201800Z 2018/2124 20012G18KT 9999 SCT015 BKN100 QNH2968INS
TEMPO 2018/2023 20015G25KT 510003
BECMG 2022/2023 20010G15KT 9999 FEW015 SCT100 QNH2978INS
BECMG 2104/2105 20008KT 9999 SCT060 QNH2985INS TX21/2018Z TN13/2102Z

Example: see airport list